Time;durP1;ratioP1;P1;durP2;ratioP2;P2;SDS_P1;SDS_P2;PMS_P1;PMS_P2;Temp;Humidity;BMP_temperature;BMP_pressure;BME280_temperature;BME280_humidity;BME280_pressure;Samples;Min_cycle;Max_cycle;Signal;HPM_P1;HPM_P2
2022/07/15 00:01:30;;;;;;;2.83;2.38;;;;;;;;;;5113631;27;20145;-42
2022/07/15 00:03:55;;;;;;;6.00;1.73;;;;;;;;;;5112228;27;20051;-44
2022/07/15 00:06:20;;;;;;;3.50;2.30;;;;;;;;;;5114814;27;20039;-42
2022/07/15 00:08:46;;;;;;;6.30;3.13;;;;;;;;;;5113438;27;20054;-42
2022/07/15 00:11:11;;;;;;;3.05;2.63;;;;;;;;;;5118219;27;20490;-41
2022/07/15 00:13:36;;;;;;;6.18;3.22;;;;;;;;;;5112705;27;20146;-40
2022/07/15 00:16:02;;;;;;;3.03;2.72;;;;;;;;;;5114200;27;20541;-43
2022/07/15 00:18:27;;;;;;;3.75;2.92;;;;;;;;;;5113759;27;20534;-46
2022/07/15 00:20:52;;;;;;;3.30;2.42;;;;;;;;;;5108343;27;20055;-43
2022/07/15 00:23:18;;;;;;;2.08;1.83;;;;;;;;;;5110840;27;20049;-43
2022/07/15 00:25:43;;;;;;;12.15;2.80;;;;;;;;;;5109313;27;20062;-42
2022/07/15 00:28:08;;;;;;;3.97;2.78;;;;;;;;;;5111622;27;20051;-45
2022/07/15 00:30:35;;;;;;;6.65;3.63;;;;;;;;;;5111452;27;20550;-41
2022/07/15 00:33:01;;;;;;;3.88;2.72;;;;;;;;;;5114422;27;20349;-45
2022/07/15 00:35:27;;;;;;;4.88;2.40;;;;;;;;;;5111463;27;20058;-44
2022/07/15 00:37:52;;;;;;;2.45;2.08;;;;;;;;;;5112217;27;20039;-46
2022/07/15 00:40:18;;;;;;;4.72;3.08;;;;;;;;;;5113552;28;20060;-41
2022/07/15 00:42:43;;;;;;;3.05;2.65;;;;;;;;;;5115298;27;20055;-40
2022/07/15 00:45:09;;;;;;;3.35;3.05;;;;;;;;;;5107131;27;20054;-43
2022/07/15 00:47:35;;;;;;;4.88;3.55;;;;;;;;;;5109301;28;20082;-42
2022/07/15 00:50:00;;;;;;;7.97;2.30;;;;;;;;;;5112995;28;20668;-45
2022/07/15 00:52:26;;;;;;;4.03;3.05;;;;;;;;;;5111135;27;20542;-43
2022/07/15 00:54:52;;;;;;;3.30;2.15;;;;;;;;;;5106340;27;20046;-43
2022/07/15 00:57:18;;;;;;;4.80;3.22;;;;;;;;;;5112009;27;20810;-42
2022/07/15 00:59:43;;;;;;;4.25;3.40;;;;;;;;;;5110553;27;20048;-45
2022/07/15 01:02:09;;;;;;;3.05;2.75;;;;;;;;;;5114886;27;20173;-46
2022/07/15 01:04:36;;;;;;;4.57;3.03;;;;;;;;;;5110905;27;20134;-43
2022/07/15 01:07:01;;;;;;;5.20;3.15;;;;;;;;;;5115087;27;20043;-44
2022/07/15 01:09:27;;;;;;;3.30;2.50;;;;;;;;;;5112909;27;20040;-45
2022/07/15 01:11:52;;;;;;;3.58;3.28;;;;;;;;;;5112246;27;20040;-43
2022/07/15 01:14:17;;;;;;;3.42;2.53;;;;;;;;;;5112199;27;20536;-45
2022/07/15 01:16:43;;;;;;;4.75;3.03;;;;;;;;;;5113377;27;20258;-44
2022/07/15 01:19:08;;;;;;;2.65;2.25;;;;;;;;;;5115039;27;20039;-42
2022/07/15 01:21:33;;;;;;;6.25;3.22;;;;;;;;;;5114541;27;20051;-40
2022/07/15 01:24:00;;;;;;;3.13;2.67;;;;;;;;;;5118210;27;20036;-43
2022/07/15 01:26:25;;;;;;;14.00;3.22;;;;;;;;;;5112522;27;20163;-44
2022/07/15 01:28:50;;;;;;;3.65;2.80;;;;;;;;;;5109633;27;20095;-42
2022/07/15 01:31:16;;;;;;;7.32;2.60;;;;;;;;;;5108470;27;20492;-42
2022/07/15 01:33:41;;;;;;;2.17;1.90;;;;;;;;;;5108563;27;20871;-45
2022/07/15 01:36:07;;;;;;;4.88;3.17;;;;;;;;;;5111081;27;20627;-44
2022/07/15 01:38:32;;;;;;;6.95;2.65;;;;;;;;;;5105957;27;20054;-42
2022/07/15 01:40:57;;;;;;;4.00;2.95;;;;;;;;;;5111649;28;20535;-42
2022/07/15 01:43:23;;;;;;;2.72;2.38;;;;;;;;;;5109839;27;20564;-41
2022/07/15 01:45:48;;;;;;;3.63;3.33;;;;;;;;;;5112723;27;20051;-41
2022/07/15 01:50:58;;;;;;;8.73;3.10;;;;;;;;;;5112436;28;20089;-40
2022/07/15 01:53:24;;;;;;;2.60;2.35;;;;;;;;;;5110355;27;20059;-40
2022/07/15 01:55:50;;;;;;;4.10;3.00;;;;;;;;;;5109240;27;20543;-44
2022/07/15 01:58:15;;;;;;;3.20;2.33;;;;;;;;;;5108783;28;20059;-43
2022/07/15 02:00:41;;;;;;;2.60;2.08;;;;;;;;;;5113488;27;20043;-40
2022/07/15 02:03:09;;;;;;;8.15;2.35;;;;;;;;;;5113941;28;20552;-44
2022/07/15 02:05:35;;;;;;;3.17;2.53;;;;;;;;;;5091074;28;20043;-42
2022/07/15 02:08:00;;;;;;;2.38;1.83;;;;;;;;;;5111645;27;20044;-39
2022/07/15 02:10:39;;;;;;;3.78;2.20;;;;;;;;;;5118375;27;20505;-42
2022/07/15 02:13:04;;;;;;;2.85;2.55;;;;;;;;;;5112801;27;20043;-43
2022/07/15 02:15:30;;;;;;;4.13;2.75;;;;;;;;;;5112610;27;20054;-40
2022/07/15 02:17:56;;;;;;;2.58;2.38;;;;;;;;;;5114169;27;20711;-41
2022/07/15 02:20:21;;;;;;;3.88;2.72;;;;;;;;;;5115775;27;20058;-41
2022/07/15 02:22:46;;;;;;;2.78;2.33;;;;;;;;;;5117560;27;20126;-40
2022/07/15 02:25:11;;;;;;;3.40;2.63;;;;;;;;;;5114727;27;20532;-40
2022/07/15 02:27:37;;;;;;;5.57;3.05;;;;;;;;;;5118021;27;20065;-39
2022/07/15 02:30:02;;;;;;;2.55;2.33;;;;;;;;;;5115725;27;20666;-40
2022/07/15 02:32:28;;;;;;;4.80;2.60;;;;;;;;;;5118993;27;20043;-45
2022/07/15 02:34:54;;;;;;;3.47;2.58;;;;;;;;;;5116090;27;20051;-40
2022/07/15 02:37:19;;;;;;;9.00;3.70;;;;;;;;;;5110645;28;20542;-42
2022/07/15 02:39:44;;;;;;;2.83;2.42;;;;;;;;;;5114722;27;20049;-41
2022/07/15 02:42:10;;;;;;;3.60;3.00;;;;;;;;;;5116333;27;20043;-45
2022/07/15 02:44:36;;;;;;;7.68;3.13;;;;;;;;;;5110563;27;20100;-39
2022/07/15 02:47:02;;;;;;;3.30;2.30;;;;;;;;;;5116559;27;20043;-39
2022/07/15 02:49:27;;;;;;;2.63;2.28;;;;;;;;;;5110890;27;20618;-39
2022/07/15 02:51:52;;;;;;;3.70;2.63;;;;;;;;;;5112519;28;20101;-44
2022/07/15 02:54:18;;;;;;;8.20;3.10;;;;;;;;;;5112744;27;20124;-43
2022/07/15 02:56:46;;;;;;;6.32;2.63;;;;;;;;;;5114682;27;20116;-45
2022/07/15 02:59:11;;;;;;;3.55;2.60;;;;;;;;;;5114656;28;20051;-43
2022/07/15 03:01:36;;;;;;;4.72;2.70;;;;;;;;;;5114789;27;20051;-40
2022/07/15 03:04:02;;;;;;;4.55;2.63;;;;;;;;;;5115116;27;20079;-41
2022/07/15 03:06:27;;;;;;;4.28;3.55;;;;;;;;;;5111014;27;20138;-44
2022/07/15 03:08:52;;;;;;;2.60;2.35;;;;;;;;;;5111686;27;20035;-40
2022/07/15 03:11:18;;;;;;;3.45;2.45;;;;;;;;;;5110327;27;20043;-42
2022/07/15 03:13:43;;;;;;;4.45;3.22;;;;;;;;;;5115570;27;20071;-44
2022/07/15 03:16:08;;;;;;;4.18;3.15;;;;;;;;;;5112133;27;20506;-42
2022/07/15 03:18:34;;;;;;;3.65;2.85;;;;;;;;;;5115662;27;20462;-46
2022/07/15 03:20:59;;;;;;;2.95;2.35;;;;;;;;;;5116249;27;20112;-42
2022/07/15 03:23:24;;;;;;;15.82;3.25;;;;;;;;;;5114684;27;20047;-42
2022/07/15 03:25:50;;;;;;;3.38;3.08;;;;;;;;;;5110113;27;20055;-42
2022/07/15 03:28:15;;;;;;;2.83;2.15;;;;;;;;;;5116421;27;20070;-42
2022/07/15 03:30:40;;;;;;;4.60;2.65;;;;;;;;;;5112874;27;20770;-42
2022/07/15 03:33:05;;;;;;;4.28;3.20;;;;;;;;;;5112206;27;20051;-40
2022/07/15 03:35:31;;;;;;;3.47;2.78;;;;;;;;;;5113991;27;20053;-43
2022/07/15 03:37:56;;;;;;;3.22;2.92;;;;;;;;;;5110231;27;20130;-42
2022/07/15 03:40:21;;;;;;;4.68;3.00;;;;;;;;;;5112177;28;20470;-42
2022/07/15 03:42:47;;;;;;;5.25;3.38;;;;;;;;;;5110387;27;20147;-42
2022/07/15 03:45:12;;;;;;;3.38;3.08;;;;;;;;;;5114613;27;20061;-40
2022/07/15 03:47:38;;;;;;;4.10;3.28;;;;;;;;;;5115918;27;20126;-42
2022/07/15 03:50:03;;;;;;;5.72;3.35;;;;;;;;;;5112452;27;20066;-41
2022/07/15 03:52:29;;;;;;;4.15;2.97;;;;;;;;;;5113924;27;20564;-43
2022/07/15 03:54:54;;;;;;;4.07;3.28;;;;;;;;;;5115631;27;20055;-42
2022/07/15 03:57:20;;;;;;;7.20;3.35;;;;;;;;;;5115783;27;20038;-41
2022/07/15 03:59:45;;;;;;;3.35;2.88;;;;;;;;;;5115416;27;20065;-41
2022/07/15 04:02:10;;;;;;;2.33;2.13;;;;;;;;;;5109355;27;20528;-43
2022/07/15 04:04:36;;;;;;;3.83;2.65;;;;;;;;;;5113908;27;20146;-41
2022/07/15 04:07:01;;;;;;;5.07;3.47;;;;;;;;;;5116225;27;20091;-39
2022/07/15 04:09:27;;;;;;;3.65;2.83;;;;;;;;;;5117096;27;20062;-41
2022/07/15 04:11:52;;;;;;;19.60;3.20;;;;;;;;;;5114583;27;20537;-40
2022/07/15 04:14:17;;;;;;;3.63;3.33;;;;;;;;;;5114729;27;20051;-41
2022/07/15 04:16:43;;;;;;;3.60;3.13;;;;;;;;;;5111747;27;20056;-41
2022/07/15 04:19:09;;;;;;;3.42;3.10;;;;;;;;;;5114396;27;20047;-40
2022/07/15 04:21:34;;;;;;;3.25;2.95;;;;;;;;;;5094328;28;20039;-43
2022/07/15 04:24:00;;;;;;;5.55;3.40;;;;;;;;;;5117286;27;20035;-41
2022/07/15 04:26:25;;;;;;;5.47;3.70;;;;;;;;;;5114456;27;20054;-40
2022/07/15 04:28:50;;;;;;;4.55;3.92;;;;;;;;;;5113175;27;20047;-42
2022/07/15 04:31:16;;;;;;;4.00;3.60;;;;;;;;;;5118098;27;20045;-40
2022/07/15 04:33:41;;;;;;;6.32;2.90;;;;;;;;;;5111749;27;20043;-40
2022/07/15 04:36:06;;;;;;;8.48;3.90;;;;;;;;;;5115464;27;20131;-42
2022/07/15 04:38:32;;;;;;;4.22;3.00;;;;;;;;;;5115956;27;20181;-41
2022/07/15 04:40:57;;;;;;;3.88;2.47;;;;;;;;;;5110799;27;20078;-45
2022/07/15 04:43:22;;;;;;;3.92;2.78;;;;;;;;;;5114498;27;20071;-41
2022/07/15 04:45:48;;;;;;;3.75;3.22;;;;;;;;;;5094070;28;20160;-46
2022/07/15 04:50:57;;;;;;;2.92;2.30;;;;;;;;;;5115439;27;20085;-42
2022/07/15 04:53:22;;;;;;;7.38;4.35;;;;;;;;;;5114169;27;20449;-41
2022/07/15 04:55:48;;;;;;;5.90;2.75;;;;;;;;;;5114882;27;20469;-42
2022/07/15 04:58:14;;;;;;;10.30;3.83;;;;;;;;;;5115079;27;20047;-42
2022/07/15 05:00:40;;;;;;;4.28;2.63;;;;;;;;;;5116203;27;20123;-44
2022/07/15 05:03:05;;;;;;;6.85;3.22;;;;;;;;;;5118043;27;20384;-43
2022/07/15 05:05:33;;;;;;;4.60;3.22;;;;;;;;;;5113856;28;20103;-45
2022/07/15 05:07:58;;;;;;;3.90;3.50;;;;;;;;;;5113859;27;20039;-45
2022/07/15 05:10:24;;;;;;;3.85;3.20;;;;;;;;;;5116403;27;20502;-42
2022/07/15 05:12:49;;;;;;;8.60;3.88;;;;;;;;;;5116166;27;20062;-44
2022/07/15 05:15:14;;;;;;;14.23;3.30;;;;;;;;;;5112905;28;20128;-45
2022/07/15 05:17:40;;;;;;;7.90;7.20;;;;;;;;;;5112023;28;20903;-41
2022/07/15 05:20:06;;;;;;;10.05;2.83;;;;;;;;;;5112825;27;20066;-42
2022/07/15 05:22:31;;;;;;;5.80;3.85;;;;;;;;;;5113632;28;20071;-43
2022/07/15 05:24:57;;;;;;;4.57;3.83;;;;;;;;;;5111990;27;20058;-42
2022/07/15 05:27:22;;;;;;;3.70;3.15;;;;;;;;;;5115371;27;20490;-41
2022/07/15 05:29:47;;;;;;;4.22;3.55;;;;;;;;;;5116472;27;20077;-41
2022/07/15 05:32:12;;;;;;;19.02;4.35;;;;;;;;;;5113568;27;20055;-41
2022/07/15 05:34:38;;;;;;;5.97;3.80;;;;;;;;;;5114092;27;20093;-42
2022/07/15 05:37:03;;;;;;;4.47;3.15;;;;;;;;;;5114102;27;20089;-43
2022/07/15 05:39:28;;;;;;;11.18;4.50;;;;;;;;;;5115449;27;20036;-41
2022/07/15 05:41:54;;;;;;;4.45;3.97;;;;;;;;;;5112065;27;20048;-42
2022/07/15 05:44:19;;;;;;;5.70;3.50;;;;;;;;;;5111477;28;20062;-43
2022/07/15 05:46:45;;;;;;;11.63;3.33;;;;;;;;;;5113739;27;20422;-43
2022/07/15 05:49:10;;;;;;;11.70;5.13;;;;;;;;;;5117216;27;20051;-43
2022/07/15 05:51:36;;;;;;;11.60;4.43;;;;;;;;;;5110274;27;20028;-42
2022/07/15 05:54:01;;;;;;;13.68;3.35;;;;;;;;;;5112070;27;20031;-41
2022/07/15 05:56:26;;;;;;;7.15;4.00;;;;;;;;;;5113197;27;20132;-43
2022/07/15 05:58:51;;;;;;;10.02;4.13;;;;;;;;;;5115606;27;20039;-41
2022/07/15 06:01:17;;;;;;;5.05;4.55;;;;;;;;;;5112942;27;20544;-46
2022/07/15 06:03:42;;;;;;;12.13;3.72;;;;;;;;;;5109625;27;20125;-41
2022/07/15 06:06:08;;;;;;;6.95;4.20;;;;;;;;;;5113485;27;20071;-45
2022/07/15 06:08:34;;;;;;;11.35;4.95;;;;;;;;;;5111472;27;20134;-47
2022/07/15 06:10:59;;;;;;;8.05;3.88;;;;;;;;;;5114457;27;20031;-45
2022/07/15 06:13:24;;;;;;;8.02;5.28;;;;;;;;;;5111591;27;20031;-43
2022/07/15 06:15:50;;;;;;;23.67;8.77;;;;;;;;;;5113365;27;20051;-42
2022/07/15 06:18:16;;;;;;;21.42;9.23;;;;;;;;;;5114483;27;20047;-44
2022/07/15 06:20:41;;;;;;;8.57;6.55;;;;;;;;;;5111530;27;20070;-41
2022/07/15 06:23:07;;;;;;;8.98;4.07;;;;;;;;;;5113019;27;20074;-42
2022/07/15 06:25:32;;;;;;;46.65;14.02;;;;;;;;;;5112700;28;20444;-41
2022/07/15 06:27:57;;;;;;;14.68;3.33;;;;;;;;;;5114051;27;20183;-41
2022/07/15 06:30:23;;;;;;;18.23;4.43;;;;;;;;;;5113396;27;20547;-44
2022/07/15 06:32:48;;;;;;;17.15;4.93;;;;;;;;;;5112464;27;20035;-42
2022/07/15 06:35:13;;;;;;;9.40;4.43;;;;;;;;;;5110115;27;20130;-42
2022/07/15 06:37:39;;;;;;;10.10;7.13;;;;;;;;;;5114115;27;20035;-43
2022/07/15 06:40:04;;;;;;;9.38;7.53;;;;;;;;;;5113144;27;20063;-44
2022/07/15 06:42:29;;;;;;;152.93;108.00;;;;;;;;;;5109237;28;20433;-42
2022/07/15 06:44:55;;;;;;;242.55;152.20;;;;;;;;;;5112303;27;20043;-45
2022/07/15 06:47:20;;;;;;;171.32;110.70;;;;;;;;;;5114359;27;20055;-44
2022/07/15 06:49:46;;;;;;;162.50;112.22;;;;;;;;;;5113815;27;20050;-43
2022/07/15 06:52:11;;;;;;;139.18;95.00;;;;;;;;;;5113859;28;20043;-43
2022/07/15 06:54:37;;;;;;;107.47;68.70;;;;;;;;;;5112858;27;20035;-42
2022/07/15 06:57:02;;;;;;;115.57;53.97;;;;;;;;;;5113785;28;20139;-39
2022/07/15 06:59:27;;;;;;;54.10;37.75;;;;;;;;;;5112605;28;20040;-41
2022/07/15 07:01:53;;;;;;;215.18;59.58;;;;;;;;;;5117467;27;20431;-45
2022/07/15 07:04:18;;;;;;;42.75;22.85;;;;;;;;;;5098476;28;20066;-40
2022/07/15 07:06:44;;;;;;;40.22;18.70;;;;;;;;;;5113459;27;21073;-43
2022/07/15 07:09:10;;;;;;;42.25;16.55;;;;;;;;;;5113564;28;20050;-42
2022/07/15 07:11:35;;;;;;;27.02;13.30;;;;;;;;;;5117016;27;20091;-40
2022/07/15 07:14:00;;;;;;;55.75;13.90;;;;;;;;;;5117766;27;20754;-44
2022/07/15 07:16:26;;;;;;;67.20;13.85;;;;;;;;;;5120857;27;20043;-42
2022/07/15 07:18:51;;;;;;;10.23;5.90;;;;;;;;;;5118214;27;20963;-45
2022/07/15 07:21:17;;;;;;;6.03;3.65;;;;;;;;;;5114052;28;20055;-45
2022/07/15 07:23:43;;;;;;;19.50;4.18;;;;;;;;;;5115667;27;20154;-41
2022/07/15 07:26:09;;;;;;;53.15;12.80;;;;;;;;;;5116264;27;20046;-43
2022/07/15 07:28:34;;;;;;;10.20;4.55;;;;;;;;;;5111896;28;20028;-41
2022/07/15 07:31:00;;;;;;;7.88;4.05;;;;;;;;;;5116901;27;20054;-41
2022/07/15 07:33:25;;;;;;;22.67;4.55;;;;;;;;;;5117738;27;20383;-41
2022/07/15 07:35:51;;;;;;;26.52;6.07;;;;;;;;;;5112250;28;20458;-40
2022/07/15 07:38:17;;;;;;;11.23;5.03;;;;;;;;;;5111877;27;20089;-43
2022/07/15 07:40:42;;;;;;;7.30;3.33;;;;;;;;;;5116961;27;20062;-41
2022/07/15 07:43:08;;;;;;;3.45;2.33;;;;;;;;;;5113676;27;20043;-44
2022/07/15 07:45:33;;;;;;;5.07;3.60;;;;;;;;;;5113546;27;20512;-42
2022/07/15 07:47:58;;;;;;;26.08;5.15;;;;;;;;;;5111207;27;20558;-41
2022/07/15 07:50:25;;;;;;;25.52;3.90;;;;;;;;;;5115864;27;20032;-45
2022/07/15 07:52:50;;;;;;;18.35;4.07;;;;;;;;;;5112326;27;20054;-41
2022/07/15 07:55:16;;;;;;;11.55;3.47;;;;;;;;;;5114983;27;20044;-41
2022/07/15 07:57:52;;;;;;;8.15;4.07;;;;;;;;;;5107956;27;20133;-40
2022/07/15 08:00:18;;;;;;;4.10;3.15;;;;;;;;;;5113463;27;20052;-41
2022/07/15 08:02:44;;;;;;;7.10;2.40;;;;;;;;;;5097877;28;20062;-40
2022/07/15 08:05:09;;;;;;;6.90;2.90;;;;;;;;;;5113379;27;20054;-41
2022/07/15 08:07:35;;;;;;;11.65;3.33;;;;;;;;;;5115877;28;20058;-42
2022/07/15 08:10:01;;;;;;;20.67;5.53;;;;;;;;;;5116039;27;20597;-42
2022/07/15 08:12:26;;;;;;;3.25;2.42;;;;;;;;;;5112850;27;20036;-46
2022/07/15 08:14:54;;;;;;;6.20;4.38;;;;;;;;;;5115006;27;20047;-40
2022/07/15 08:17:20;;;;;;;3.40;3.03;;;;;;;;;;5105651;27;20146;-41
2022/07/15 08:19:46;;;;;;;3.15;2.50;;;;;;;;;;5117487;27;20168;-40
2022/07/15 08:22:11;;;;;;;3.90;2.67;;;;;;;;;;5116367;27;20130;-41
2022/07/15 08:24:36;;;;;;;6.18;3.05;;;;;;;;;;5115847;27;20039;-44
2022/07/15 08:27:03;;;;;;;2.70;1.42;;;;;;;;;;5110808;28;20043;-43
2022/07/15 08:29:28;;;;;;;3.45;2.15;;;;;;;;;;5116543;27;20044;-40
2022/07/15 08:31:53;;;;;;;2.47;1.75;;;;;;;;;;5093632;27;20040;-40
2022/07/15 08:34:19;;;;;;;4.60;2.78;;;;;;;;;;5114612;27;20047;-42
2022/07/15 08:36:44;;;;;;;2.15;1.63;;;;;;;;;;5112394;27;20200;-44
2022/07/15 08:39:09;;;;;;;9.15;3.83;;;;;;;;;;5114936;28;20043;-43
2022/07/15 08:41:36;;;;;;;2.17;1.65;;;;;;;;;;5115782;27;20516;-40
2022/07/15 08:44:01;;;;;;;2.17;1.73;;;;;;;;;;5116613;27;20054;-40
2022/07/15 08:46:28;;;;;;;2.92;2.28;;;;;;;;;;5112151;27;20048;-40
2022/07/15 08:48:57;;;;;;;2.05;1.30;;;;;;;;;;5114160;27;20075;-41
2022/07/15 08:51:24;;;;;;;1.43;1.10;;;;;;;;;;5107788;28;20072;-43
2022/07/15 08:53:51;;;;;;;2.75;1.92;;;;;;;;;;5115926;27;20051;-42
2022/07/15 08:56:17;;;;;;;2.17;1.50;;;;;;;;;;5114211;27;20777;-43
2022/07/15 08:58:42;;;;;;;2.05;1.85;;;;;;;;;;5113486;27;20047;-46
2022/07/15 09:01:08;;;;;;;2.17;1.35;;;;;;;;;;5107390;27;20055;-41
2022/07/15 09:03:33;;;;;;;5.10;2.15;;;;;;;;;;5111260;27;20051;-43
2022/07/15 09:05:58;;;;;;;1.92;1.65;;;;;;;;;;5110920;27;20092;-42
2022/07/15 09:08:24;;;;;;;10.10;2.00;;;;;;;;;;5114825;27;20067;-41
2022/07/15 09:10:54;;;;;;;9.38;1.95;;;;;;;;;;5112110;28;20047;-42
2022/07/15 09:13:25;;;;;;;1.37;0.97;;;;;;;;;;5109463;27;20036;-43
2022/07/15 09:15:51;;;;;;;1.55;1.15;;;;;;;;;;5110682;27;20047;-41
2022/07/15 09:18:18;;;;;;;1.30;0.98;;;;;;;;;;5114221;27;20074;-41
2022/07/15 09:20:45;;;;;;;1.92;1.70;;;;;;;;;;5109593;28;20047;-43
2022/07/15 09:23:11;;;;;;;3.83;1.33;;;;;;;;;;5111374;27;20536;-44
2022/07/15 09:25:37;;;;;;;2.60;1.38;;;;;;;;;;5107077;27;20062;-43
2022/07/15 09:28:03;;;;;;;2.05;1.35;;;;;;;;;;5106154;27;20584;-43
2022/07/15 09:33:39;;;;;;;1.92;1.30;;;;;;;;;;5110657;27;20108;-42
2022/07/15 09:36:04;;;;;;;3.53;1.90;;;;;;;;;;5109354;27;20039;-43
2022/07/15 09:38:31;;;;;;;1.27;0.80;;;;;;;;;;5106782;28;20061;-41
2022/07/15 09:40:57;;;;;;;14.18;1.45;;;;;;;;;;5107336;27;20147;-43
2022/07/15 09:43:22;;;;;;;3.40;1.40;;;;;;;;;;5112413;27;20458;-44
2022/07/15 09:45:55;;;;;;;1.50;0.93;;;;;;;;;;5110948;27;20051;-42
2022/07/15 09:48:20;;;;;;;2.25;0.90;;;;;;;;;;5109227;27;20508;-42
2022/07/15 09:50:46;;;;;;;7.53;1.85;;;;;;;;;;5111605;27;20910;-41
2022/07/15 09:53:13;;;;;;;2.20;1.35;;;;;;;;;;5111870;27;20046;-42
2022/07/15 09:55:39;;;;;;;3.20;1.48;;;;;;;;;;5112457;27;20063;-43
2022/07/15 09:58:05;;;;;;;6.53;1.17;;;;;;;;;;5109070;27;20040;-42
2022/07/15 10:00:31;;;;;;;1.50;0.90;;;;;;;;;;5117833;28;20094;-43
2022/07/15 10:02:56;;;;;;;9.45;2.20;;;;;;;;;;5110476;27;20493;-40
2022/07/15 10:05:22;;;;;;;6.53;1.75;;;;;;;;;;5106745;27;20528;-40
2022/07/15 10:07:48;;;;;;;2.08;1.20;;;;;;;;;;5110230;27;20047;-41
2022/07/15 10:10:13;;;;;;;2.65;1.20;;;;;;;;;;5106630;27;20054;-42
2022/07/15 10:12:57;;;;;;;3.65;1.15;;;;;;;;;;5110923;27;20111;-41
2022/07/15 10:15:29;;;;;;;2.97;1.25;;;;;;;;;;5109518;27;20047;-42
2022/07/15 10:18:05;;;;;;;2.45;1.35;;;;;;;;;;5103636;27;20467;-45
2022/07/15 10:20:31;;;;;;;1.88;1.00;;;;;;;;;;5106759;27;20781;-41
2022/07/15 10:23:14;;;;;;;5.25;1.92;;;;;;;;;;5108463;27;20058;-43
2022/07/15 10:25:43;;;;;;;2.35;1.50;;;;;;;;;;5111925;27;20493;-46
2022/07/15 10:28:27;;;;;;;3.13;1.27;;;;;;;;;;5110977;27;20126;-43
2022/07/15 10:31:11;;;;;;;1.45;1.00;;;;;;;;;;5117712;27;20058;-43
2022/07/15 10:33:36;;;;;;;0.75;0.60;;;;;;;;;;5111240;27;20552;-42
2022/07/15 10:36:05;;;;;;;7.03;1.23;;;;;;;;;;5113555;27;20539;-41
2022/07/15 10:38:37;;;;;;;1.80;1.13;;;;;;;;;;5110136;27;20433;-44
2022/07/15 10:41:21;;;;;;;1.98;1.02;;;;;;;;;;5112627;27;20122;-45
2022/07/15 10:43:50;;;;;;;14.13;1.50;;;;;;;;;;5111386;27;20124;-44
2022/07/15 10:46:16;;;;;;;2.50;1.73;;;;;;;;;;5113786;27;20051;-43
2022/07/15 10:48:42;;;;;;;1.42;0.93;;;;;;;;;;5111051;27;20633;-42
2022/07/15 10:51:07;;;;;;;1.60;1.13;;;;;;;;;;5116972;27;20047;-46
2022/07/15 10:53:41;;;;;;;7.90;0.70;;;;;;;;;;5112503;27;20040;-44
2022/07/15 10:56:25;;;;;;;0.75;0.38;;;;;;;;;;5105165;27;20043;-43
2022/07/15 10:59:08;;;;;;;0.75;0.50;;;;;;;;;;5113998;27;20051;-42
2022/07/15 11:01:34;;;;;;;1.02;0.82;;;;;;;;;;5108967;28;20070;-45
2022/07/15 11:04:19;;;;;;;2.05;1.20;;;;;;;;;;5116015;27;20462;-43
2022/07/15 11:07:04;;;;;;;1.00;0.50;;;;;;;;;;5114484;27;20067;-47
2022/07/15 11:09:47;;;;;;;1.30;0.68;;;;;;;;;;5114443;27;20565;-46
2022/07/15 11:12:17;;;;;;;4.00;1.30;;;;;;;;;;5117220;28;20045;-44
2022/07/15 11:14:46;;;;;;;1.83;0.97;;;;;;;;;;5114545;27;20039;-45
2022/07/15 11:17:12;;;;;;;4.80;0.70;;;;;;;;;;5115988;28;20410;-49
2022/07/15 11:19:38;;;;;;;14.50;2.15;;;;;;;;;;5111436;28;20426;-49
2022/07/15 11:22:04;;;;;;;2.10;1.05;;;;;;;;;;5114072;27;20039;-43
2022/07/15 11:24:29;;;;;;;1.58;0.82;;;;;;;;;;5114092;27;20062;-43
2022/07/15 11:26:55;;;;;;;3.03;1.23;;;;;;;;;;5112470;27;20051;-43
2022/07/15 11:29:20;;;;;;;3.72;1.15;;;;;;;;;;5116919;27;20040;-46
2022/07/15 11:31:47;;;;;;;1.15;0.55;;;;;;;;;;5117265;27;20043;-42
2022/07/15 11:34:13;;;;;;;0.90;0.57;;;;;;;;;;5113165;27;20501;-46
2022/07/15 11:36:38;;;;;;;1.05;0.82;;;;;;;;;;5118357;27;20031;-45
2022/07/15 11:39:04;;;;;;;4.95;1.70;;;;;;;;;;5114028;27;20062;-43
2022/07/15 11:44:32;;;;;;;0.50;0.50;;;;;;;;;;5106606;27;20035;-43
2022/07/15 11:46:58;;;;;;;3.78;1.25;;;;;;;;;;5119712;27;20039;-45
2022/07/15 11:49:30;;;;;;;1.05;0.47;;;;;;;;;;5114999;28;20038;-44
2022/07/15 11:51:56;;;;;;;0.40;0.40;;;;;;;;;;5096821;27;20058;-45
2022/07/15 11:54:22;;;;;;;3.95;0.95;;;;;;;;;;5114201;27;20040;-43
2022/07/15 11:56:54;;;;;;;1.40;0.93;;;;;;;;;;5111124;27;20051;-46
2022/07/15 11:59:20;;;;;;;1.50;1.08;;;;;;;;;;5111888;27;20066;-43
2022/07/15 12:01:45;;;;;;;1.67;0.82;;;;;;;;;;5115442;27;20654;-46
2022/07/15 12:04:10;;;;;;;0.65;0.45;;;;;;;;;;5111822;28;20047;-43
2022/07/15 12:06:36;;;;;;;0.45;0.35;;;;;;;;;;5111019;27;20055;-47
2022/07/15 12:09:08;;;;;;;4.25;0.80;;;;;;;;;;5112829;27;20680;-44
2022/07/15 12:11:37;;;;;;;6.03;0.98;;;;;;;;;;5112568;27;20036;-43
2022/07/15 12:14:04;;;;;;;1.63;1.00;;;;;;;;;;5114800;27;20092;-46
2022/07/15 12:16:29;;;;;;;1.52;0.88;;;;;;;;;;5117947;27;20051;-45
2022/07/15 12:18:56;;;;;;;0.98;0.70;;;;;;;;;;5114006;27;20041;-45
2022/07/15 12:21:21;;;;;;;1.75;1.00;;;;;;;;;;5112565;27;20177;-42
2022/07/15 12:24:06;;;;;;;2.05;1.00;;;;;;;;;;5110126;27;20208;-42
2022/07/15 12:26:32;;;;;;;0.73;0.50;;;;;;;;;;5113196;27;20562;-48
2022/07/15 12:28:59;;;;;;;1.80;0.98;;;;;;;;;;5114059;27;20047;-45
2022/07/15 12:31:28;;;;;;;1.42;1.02;;;;;;;;;;5116128;27;20062;-43
2022/07/15 12:33:54;;;;;;;1.27;0.80;;;;;;;;;;5111112;27;20517;-45
2022/07/15 12:36:20;;;;;;;0.88;0.70;;;;;;;;;;5110172;27;20264;-44
2022/07/15 12:39:01;;;;;;;1.65;1.00;;;;;;;;;;5120847;27;20035;-42
2022/07/15 12:41:26;;;;;;;;;;;;;;;;;;5116639;27;20040;-44
2022/07/15 12:43:56;;;;;;;1.63;1.13;;;;;;;;;;5114913;27;20290;-41
2022/07/15 12:46:40;;;;;;;0.52;0.32;;;;;;;;;;5113770;27;20051;-43
2022/07/15 12:49:07;;;;;;;29.58;1.85;;;;;;;;;;5111778;27;20039;-47
2022/07/15 12:51:33;;;;;;;25.83;1.77;;;;;;;;;;5113865;27;20617;-45
2022/07/15 12:54:05;;;;;;;3.67;1.35;;;;;;;;;;5117345;27;20084;-44
2022/07/15 12:56:49;;;;;;;10.75;1.45;;;;;;;;;;5113560;27;20070;-46
2022/07/15 12:59:14;;;;;;;2.42;1.40;;;;;;;;;;5112840;28;20048;-44
2022/07/15 13:01:42;;;;;;;8.25;1.55;;;;;;;;;;5114309;27;20457;-45
2022/07/15 13:04:08;;;;;;;6.13;0.70;;;;;;;;;;5112345;27;20026;-44
2022/07/15 13:06:33;;;;;;;1.95;1.33;;;;;;;;;;5113373;27;20035;-45
2022/07/15 13:08:58;;;;;;;2.85;1.08;;;;;;;;;;5115041;27;20039;-44
2022/07/15 13:11:24;;;;;;;1.27;0.60;;;;;;;;;;5114079;27;20409;-48
2022/07/15 13:13:49;;;;;;;3.33;0.93;;;;;;;;;;5111900;27;20387;-46
2022/07/15 13:16:15;;;;;;;1.23;0.75;;;;;;;;;;5112372;27;20031;-43
2022/07/15 13:18:40;;;;;;;1.20;0.90;;;;;;;;;;5112050;28;20610;-46
2022/07/15 13:21:05;;;;;;;1.23;0.82;;;;;;;;;;5112362;27;20043;-43
2022/07/15 13:23:31;;;;;;;1.08;0.77;;;;;;;;;;5095928;28;20035;-43
2022/07/15 13:25:57;;;;;;;1.42;0.77;;;;;;;;;;5111930;27;20118;-44
2022/07/15 13:28:22;;;;;;;1.58;0.93;;;;;;;;;;5113105;27;20043;-44
2022/07/15 13:30:49;;;;;;;1.25;0.80;;;;;;;;;;5115996;27;20035;-47
2022/07/15 13:33:14;;;;;;;1.15;0.60;;;;;;;;;;5115386;27;20047;-43
2022/07/15 13:35:39;;;;;;;0.73;0.32;;;;;;;;;;5112653;27;20644;-45
2022/07/15 13:38:05;;;;;;;3.78;0.77;;;;;;;;;;5112578;27;20049;-43
2022/07/15 13:40:30;;;;;;;0.85;0.70;;;;;;;;;;5113857;27;20465;-43
2022/07/15 13:42:55;;;;;;;0.93;0.50;;;;;;;;;;5117333;27;20055;-45
2022/07/15 13:45:22;;;;;;;1.60;0.80;;;;;;;;;;5114242;27;20078;-44
2022/07/15 13:47:47;;;;;;;0.68;0.45;;;;;;;;;;5111310;27;20070;-47
2022/07/15 13:53:10;;;;;;;1.90;1.00;;;;;;;;;;5068794;27;20456;-46
2022/07/15 13:55:36;;;;;;;1.60;1.00;;;;;;;;;;5113688;27;20039;-44
2022/07/15 13:58:01;;;;;;;0.82;0.65;;;;;;;;;;5114029;27;20091;-48
2022/07/15 14:00:26;;;;;;;1.20;0.65;;;;;;;;;;5107534;27;20083;-46
2022/07/15 14:02:53;;;;;;;8.45;0.75;;;;;;;;;;5109392;27;20068;-49
2022/07/15 14:05:18;;;;;;;4.18;1.50;;;;;;;;;;5109838;27;20493;-42
2022/07/15 14:07:44;;;;;;;0.45;0.35;;;;;;;;;;5114119;27;20130;-42
2022/07/15 14:10:09;;;;;;;0.88;0.60;;;;;;;;;;5116592;27;20043;-44
2022/07/15 14:12:35;;;;;;;1.65;0.90;;;;;;;;;;5111742;28;20510;-46
2022/07/15 14:15:00;;;;;;;1.50;0.70;;;;;;;;;;5109495;28;20101;-42
2022/07/15 14:17:28;;;;;;;0.73;0.68;;;;;;;;;;5113410;27;20058;-42
2022/07/15 14:19:54;;;;;;;1.50;0.88;;;;;;;;;;5114287;27;20135;-44
2022/07/15 14:22:20;;;;;;;1.38;0.70;;;;;;;;;;5111967;27;20062;-47
2022/07/15 14:24:45;;;;;;;1.92;0.95;;;;;;;;;;5110248;27;20590;-45
2022/07/15 14:27:11;;;;;;;5.65;1.35;;;;;;;;;;5110636;27;20043;-46
2022/07/15 14:29:36;;;;;;;1.75;0.75;;;;;;;;;;5108758;27;20039;-47
2022/07/15 14:32:02;;;;;;;0.85;0.65;;;;;;;;;;5110294;27;20366;-47
2022/07/15 14:34:27;;;;;;;0.93;0.57;;;;;;;;;;5109418;27;20101;-43
2022/07/15 14:36:52;;;;;;;0.98;0.38;;;;;;;;;;5112719;27;20051;-44
2022/07/15 14:39:18;;;;;;;1.02;0.90;;;;;;;;;;5112082;27;20047;-42
2022/07/15 14:41:43;;;;;;;3.95;1.50;;;;;;;;;;5109732;27;20429;-45
2022/07/15 14:44:08;;;;;;;1.35;0.82;;;;;;;;;;5112357;27;20055;-46
2022/07/15 14:46:34;;;;;;;2.45;0.73;;;;;;;;;;5114157;27;20048;-44
2022/07/15 14:48:59;;;;;;;0.75;0.50;;;;;;;;;;5110623;27;20050;-41
2022/07/15 14:51:24;;;;;;;1.70;0.80;;;;;;;;;;5108669;27;20059;-43